Home   Weather   Mallorca   Past weeks
Flag for Spain

Past Weather in Mallorca, Baleares, Spain — Yesterday and Last 2 Weeks

Currently: 82 °F. Passing clouds. (Weather station: Palma De Mallorca / Son San Juan, Spain). See more current weather

Past Weather in Mallorca — Graph

°F

Mallorca Temperature Yesterday

Maximum temperature yesterday: 84 °F (at 12:00 pm)
Minimum temperature yesterday: 64 °F (at 5:00 am)
Average temperature yesterday: 76 °F

High & Low Weather Summary for the Past Weeks

 TemperatureHumidityPressure
High95 °F (Jun 18, 11:30 am)100% (Jun 27, 6:00 am)30.09 "Hg (Jun 27, 6:00 am)
Low64 °F (Jun 29, 5:00 am)26% (Jun 16, 11:30 am)29.74 "Hg (Jun 21, 8:00 pm)
Average79 °F68%29.93 "Hg
* Reported Jun 15 11:00 am — Jun 30 11:00 am, Mallorca. Weather by CustomWeather, © 2022

Note: Actual official high and low records may vary slightly from our data, if they occured in-between our weather recording intervals... More about our weather records

Mallorca Weather History for the Previous 24 Hours

Scroll right to see more
 ConditionsComfort  
Time TempWeatherWind HumidityBarometerVisibility
11:00 am
Thu, Jun 30
81 °FPassing clouds.8 mph66%29.89 "HgN/A
10:00 am81 °FPassing clouds.3 mph66%29.89 "HgN/A
9:30 am79 °FPassing clouds.2 mph74%29.89 "HgN/A
9:00 am77 °FPassing clouds.3 mph69%29.89 "HgN/A
8:00 am72 °FPassing clouds.3 mph78%29.86 "HgN/A
7:00 am64 °FSunny.2 mph88%29.86 "Hg10 mi
6:30 am64 °FSunny.2 mph88%29.86 "Hg10 mi
6:00 am64 °FClear.No wind94%29.86 "Hg10 mi
5:30 am66 °FClear.2 mph94%29.86 "Hg10 mi
5:00 am66 °FClear.2 mph88%29.86 "Hg10 mi
4:30 am66 °FClear.2 mph94%29.86 "Hg10 mi
4:00 am66 °FClear.2 mph88%29.86 "Hg10 mi
3:30 am66 °FClear.No wind88%29.89 "Hg10 mi
3:00 am70 °FClear.2 mph83%29.89 "Hg10 mi
1:30 am70 °FClear.3 mph83%29.89 "Hg10 mi
1:00 am70 °FClear.2 mph88%29.89 "Hg10 mi
12:30 am72 °FClear.2 mph83%29.89 "Hg10 mi
12:00 am73 °FPassing clouds.3 mph78%29.89 "HgN/A
11:00 pm
Wed, Jun 29
77 °FClear.1 mph74%29.89 "Hg10 mi
10:30 pm79 °FClear.3 mph70%29.89 "Hg10 mi
10:00 pm79 °FClear.5 mph65%29.89 "Hg10 mi
9:00 pm79 °FSunny.8 mph74%29.86 "Hg10 mi
8:30 pm81 °FSunny.9 mph70%29.86 "Hg10 mi
8:00 pm81 °FSunny.10 mph70%29.86 "Hg10 mi
7:00 pm82 °FPassing clouds.13 mph62%29.89 "HgN/A
6:30 pm82 °FPassing clouds.13 mph66%29.89 "HgN/A
6:00 pm82 °FPassing clouds.15 mph66%29.92 "HgN/A
5:30 pm82 °FPassing clouds.15 mph66%29.92 "HgN/A
5:00 pm82 °FPassing clouds.15 mph66%29.92 "HgN/A
4:00 pm84 °FPassing clouds.15 mph62%29.92 "HgN/A
3:30 pm84 °FPassing clouds.14 mph58%29.92 "HgN/A
2:00 pm84 °FPassing clouds.15 mph48%29.95 "HgN/A
1:00 pm84 °FPassing clouds.12 mph51%29.98 "HgN/A
12:30 pm84 °FPassing clouds.10 mph58%29.98 "HgN/A
12:00 pm84 °FPassing clouds.6 mph55%29.98 "HgN/A
Weather by CustomWeather, © 2022

See weather overview